sensor_id;sensor_type;location;lat;lon;timestamp;temperature;humidity
584;HTU21D;27024;54.068;12.116;2023-07-31T00:02:18;13.44;118.99
584;HTU21D;27024;54.068;12.116;2023-07-31T00:04:45;13.76;118.99
584;HTU21D;27024;54.068;12.116;2023-07-31T00:07:12;13.52;118.99
584;HTU21D;27024;54.068;12.116;2023-07-31T00:09:39;13.73;118.99
584;HTU21D;27024;54.068;12.116;2023-07-31T00:12:06;13.83;118.99
584;HTU21D;27024;54.068;12.116;2023-07-31T00:14:33;13.54;118.99
584;HTU21D;27024;54.068;12.116;2023-07-31T00:17:00;13.81;118.99
584;HTU21D;27024;54.068;12.116;2023-07-31T00:19:27;13.55;118.99
584;HTU21D;27024;54.068;12.116;2023-07-31T00:21:54;13.50;118.99
584;HTU21D;27024;54.068;12.116;2023-07-31T00:24:21;13.65;118.99
584;HTU21D;27024;54.068;12.116;2023-07-31T00:26:47;13.59;118.99
584;HTU21D;27024;54.068;12.116;2023-07-31T00:29:14;13.71;118.99
584;HTU21D;27024;54.068;12.116;2023-07-31T00:31:41;13.62;118.99
584;HTU21D;27024;54.068;12.116;2023-07-31T00:34:08;13.63;118.99
584;HTU21D;27024;54.068;12.116;2023-07-31T00:36:35;13.44;118.99
584;HTU21D;27024;54.068;12.116;2023-07-31T00:39:02;13.43;118.99
584;HTU21D;27024;54.068;12.116;2023-07-31T00:41:29;13.49;118.99
584;HTU21D;27024;54.068;12.116;2023-07-31T00:43:56;13.29;118.99
584;HTU21D;27024;54.068;12.116;2023-07-31T00:46:23;13.47;118.99
584;HTU21D;27024;54.068;12.116;2023-07-31T00:48:50;13.30;118.99
584;HTU21D;27024;54.068;12.116;2023-07-31T00:51:17;13.43;118.99
584;HTU21D;27024;54.068;12.116;2023-07-31T00:53:44;13.47;118.99
584;HTU21D;27024;54.068;12.116;2023-07-31T00:56:12;13.29;118.99
584;HTU21D;27024;54.068;12.116;2023-07-31T00:58:39;13.14;118.99
584;HTU21D;27024;54.068;12.116;2023-07-31T01:01:06;13.33;118.99
584;HTU21D;27024;54.068;12.116;2023-07-31T01:03:33;13.36;118.99
584;HTU21D;27024;54.068;12.116;2023-07-31T01:08:35;13.26;118.99
584;HTU21D;27024;54.068;12.116;2023-07-31T01:11:12;13.29;118.99
584;HTU21D;27024;54.068;12.116;2023-07-31T01:13:40;13.38;118.99
584;HTU21D;27024;54.068;12.116;2023-07-31T01:16:08;13.51;118.99
584;HTU21D;27024;54.068;12.116;2023-07-31T01:18:35;13.37;118.99
584;HTU21D;27024;54.068;12.116;2023-07-31T01:24:36;13.36;118.99
584;HTU21D;27024;54.068;12.116;2023-07-31T01:27:11;13.29;118.99
584;HTU21D;27024;54.068;12.116;2023-07-31T01:30:00;13.61;118.99
584;HTU21D;27024;54.068;12.116;2023-07-31T01:32:31;13.32;118.99
584;HTU21D;27024;54.068;12.116;2023-07-31T01:34:59;13.22;118.99
584;HTU21D;27024;54.068;12.116;2023-07-31T01:37:29;13.17;118.99
584;HTU21D;27024;54.068;12.116;2023-07-31T01:39:56;13.17;118.99
584;HTU21D;27024;54.068;12.116;2023-07-31T01:42:23;13.23;118.99
584;HTU21D;27024;54.068;12.116;2023-07-31T01:44:50;13.16;118.99
584;HTU21D;27024;54.068;12.116;2023-07-31T01:47:17;13.23;118.99
584;HTU21D;27024;54.068;12.116;2023-07-31T01:49:44;13.02;118.99
584;HTU21D;27024;54.068;12.116;2023-07-31T01:52:11;13.20;118.99
584;HTU21D;27024;54.068;12.116;2023-07-31T01:54:37;12.97;118.99
584;HTU21D;27024;54.068;12.116;2023-07-31T01:57:04;13.11;118.99
584;HTU21D;27024;54.068;12.116;2023-07-31T01:59:32;13.14;118.99
584;HTU21D;27024;54.068;12.116;2023-07-31T02:01:58;13.20;118.99
584;HTU21D;27024;54.068;12.116;2023-07-31T02:04:25;13.00;118.99
584;HTU21D;27024;54.068;12.116;2023-07-31T02:06:52;12.97;118.99
584;HTU21D;27024;54.068;12.116;2023-07-31T02:09:19;12.97;118.99
584;HTU21D;27024;54.068;12.116;2023-07-31T02:11:46;12.95;118.99
584;HTU21D;27024;54.068;12.116;2023-07-31T02:14:13;12.89;118.99
584;HTU21D;27024;54.068;12.116;2023-07-31T02:16:40;12.75;118.99
584;HTU21D;27024;54.068;12.116;2023-07-31T02:19:09;12.82;118.99
584;HTU21D;27024;54.068;12.116;2023-07-31T02:21:36;12.86;118.99
584;HTU21D;27024;54.068;12.116;2023-07-31T02:24:03;12.76;118.99
584;HTU21D;27024;54.068;12.116;2023-07-31T02:26:30;12.75;118.99
584;HTU21D;27024;54.068;12.116;2023-07-31T02:28:57;12.67;118.99
584;HTU21D;27024;54.068;12.116;2023-07-31T02:31:27;12.70;118.99
584;HTU21D;27024;54.068;12.116;2023-07-31T02:33:54;12.65;118.99
584;HTU21D;27024;54.068;12.116;2023-07-31T02:36:21;12.76;118.99
584;HTU21D;27024;54.068;12.116;2023-07-31T02:38:48;12.81;118.99
584;HTU21D;27024;54.068;12.116;2023-07-31T02:41:14;12.86;118.99
584;HTU21D;27024;54.068;12.116;2023-07-31T02:43:41;12.84;118.99
584;HTU21D;27024;54.068;12.116;2023-07-31T02:46:09;12.85;118.99
584;HTU21D;27024;54.068;12.116;2023-07-31T02:48:36;12.82;118.99
584;HTU21D;27024;54.068;12.116;2023-07-31T02:51:03;12.97;118.99
584;HTU21D;27024;54.068;12.116;2023-07-31T02:53:30;13.00;118.99
584;HTU21D;27024;54.068;12.116;2023-07-31T02:55:57;12.92;118.99
584;HTU21D;27024;54.068;12.116;2023-07-31T02:58:23;12.96;118.99
584;HTU21D;27024;54.068;12.116;2023-07-31T03:00:50;12.97;118.99
584;HTU21D;27024;54.068;12.116;2023-07-31T03:03:17;13.05;118.99
584;HTU21D;27024;54.068;12.116;2023-07-31T03:05:44;13.07;118.99
584;HTU21D;27024;54.068;12.116;2023-07-31T03:08:11;13.08;118.99
584;HTU21D;27024;54.068;12.116;2023-07-31T03:10:38;13.15;118.99
584;HTU21D;27024;54.068;12.116;2023-07-31T03:13:05;13.10;118.99
584;HTU21D;27024;54.068;12.116;2023-07-31T03:15:31;13.07;118.99
584;HTU21D;27024;54.068;12.116;2023-07-31T03:17:58;13.09;118.99
584;HTU21D;27024;54.068;12.116;2023-07-31T03:20:25;13.01;118.99
584;HTU21D;27024;54.068;12.116;2023-07-31T03:22:53;13.05;118.99
584;HTU21D;27024;54.068;12.116;2023-07-31T03:25:19;13.09;118.99
584;HTU21D;27024;54.068;12.116;2023-07-31T03:27:46;13.05;118.99
584;HTU21D;27024;54.068;12.116;2023-07-31T03:30:13;13.12;118.99
584;HTU21D;27024;54.068;12.116;2023-07-31T03:32:40;13.09;118.99
584;HTU21D;27024;54.068;12.116;2023-07-31T03:35:07;13.11;118.99
584;HTU21D;27024;54.068;12.116;2023-07-31T03:37:34;13.09;118.99
584;HTU21D;27024;54.068;12.116;2023-07-31T03:40:01;13.03;118.99
584;HTU21D;27024;54.068;12.116;2023-07-31T03:42:27;13.10;118.99
584;HTU21D;27024;54.068;12.116;2023-07-31T03:44:54;13.14;118.99
584;HTU21D;27024;54.068;12.116;2023-07-31T03:47:21;13.16;118.99
584;HTU21D;27024;54.068;12.116;2023-07-31T03:49:48;13.08;118.99
584;HTU21D;27024;54.068;12.116;2023-07-31T03:52:15;13.17;118.99
584;HTU21D;27024;54.068;12.116;2023-07-31T03:54:42;13.14;118.99
584;HTU21D;27024;54.068;12.116;2023-07-31T03:57:11;13.18;118.99
584;HTU21D;27024;54.068;12.116;2023-07-31T03:59:38;13.21;118.99
584;HTU21D;27024;54.068;12.116;2023-07-31T04:02:11;13.27;118.99
584;HTU21D;27024;54.068;12.116;2023-07-31T04:04:37;13.31;118.99
584;HTU21D;27024;54.068;12.116;2023-07-31T04:07:04;13.38;118.99
584;HTU21D;27024;54.068;12.116;2023-07-31T04:09:31;13.45;118.99
584;HTU21D;27024;54.068;12.116;2023-07-31T04:11:58;13.44;118.99
584;HTU21D;27024;54.068;12.116;2023-07-31T04:14:25;13.52;118.99
584;HTU21D;27024;54.068;12.116;2023-07-31T04:16:52;13.52;118.99
584;HTU21D;27024;54.068;12.116;2023-07-31T04:19:19;13.52;118.99
584;HTU21D;27024;54.068;12.116;2023-07-31T04:21:46;13.54;118.99
584;HTU21D;27024;54.068;12.116;2023-07-31T04:24:12;13.56;118.99
584;HTU21D;27024;54.068;12.116;2023-07-31T04:26:39;13.60;118.99
584;HTU21D;27024;54.068;12.116;2023-07-31T04:29:07;13.66;118.99
584;HTU21D;27024;54.068;12.116;2023-07-31T04:31:33;13.60;118.99
584;HTU21D;27024;54.068;12.116;2023-07-31T04:34:05;13.67;118.99
584;HTU21D;27024;54.068;12.116;2023-07-31T04:36:33;13.73;118.99
584;HTU21D;27024;54.068;12.116;2023-07-31T04:39:01;13.71;118.99
584;HTU21D;27024;54.068;12.116;2023-07-31T04:41:28;13.82;118.99
584;HTU21D;27024;54.068;12.116;2023-07-31T04:43:55;13.89;118.99
584;HTU21D;27024;54.068;12.116;2023-07-31T04:46:21;13.93;118.99
584;HTU21D;27024;54.068;12.116;2023-07-31T04:48:48;13.77;118.99
584;HTU21D;27024;54.068;12.116;2023-07-31T04:51:15;13.83;118.99
584;HTU21D;27024;54.068;12.116;2023-07-31T04:53:42;13.96;118.99
584;HTU21D;27024;54.068;12.116;2023-07-31T04:56:09;13.95;118.99
584;HTU21D;27024;54.068;12.116;2023-07-31T04:58:36;14.00;118.99
584;HTU21D;27024;54.068;12.116;2023-07-31T05:01:02;14.00;118.99
584;HTU21D;27024;54.068;12.116;2023-07-31T05:03:30;14.04;118.99
584;HTU21D;27024;54.068;12.116;2023-07-31T05:05:56;14.12;118.99
584;HTU21D;27024;54.068;12.116;2023-07-31T05:08:23;14.11;118.99
584;HTU21D;27024;54.068;12.116;2023-07-31T05:10:50;14.18;118.99
584;HTU21D;27024;54.068;12.116;2023-07-31T05:13:17;14.17;118.99
584;HTU21D;27024;54.068;12.116;2023-07-31T05:15:44;14.20;118.99
584;HTU21D;27024;54.068;12.116;2023-07-31T05:18:11;14.21;118.99
584;HTU21D;27024;54.068;12.116;2023-07-31T05:20:38;14.20;118.99
584;HTU21D;27024;54.068;12.116;2023-07-31T05:23:05;14.26;118.99
584;HTU21D;27024;54.068;12.116;2023-07-31T05:25:32;14.29;118.99
584;HTU21D;27024;54.068;12.116;2023-07-31T05:27:59;14.40;118.99
584;HTU21D;27024;54.068;12.116;2023-07-31T05:30:25;14.38;118.99
584;HTU21D;27024;54.068;12.116;2023-07-31T05:32:52;14.48;118.99
584;HTU21D;27024;54.068;12.116;2023-07-31T05:35:19;14.58;118.99
584;HTU21D;27024;54.068;12.116;2023-07-31T05:37:46;14.55;118.99
584;HTU21D;27024;54.068;12.116;2023-07-31T05:40:15;14.60;118.99
584;HTU21D;27024;54.068;12.116;2023-07-31T05:42:42;14.62;118.99
584;HTU21D;27024;54.068;12.116;2023-07-31T05:45:09;14.64;118.99
584;HTU21D;27024;54.068;12.116;2023-07-31T05:47:36;14.68;118.99
584;HTU21D;27024;54.068;12.116;2023-07-31T05:50:03;14.83;118.99
584;HTU21D;27024;54.068;12.116;2023-07-31T05:52:30;14.89;118.99
584;HTU21D;27024;54.068;12.116;2023-07-31T05:54:57;14.88;118.99
584;HTU21D;27024;54.068;12.116;2023-07-31T05:57:24;14.95;118.99
584;HTU21D;27024;54.068;12.116;2023-07-31T05:59:51;15.08;118.99
584;HTU21D;27024;54.068;12.116;2023-07-31T06:02:19;15.00;118.99
584;HTU21D;27024;54.068;12.116;2023-07-31T06:04:46;15.03;118.99
584;HTU21D;27024;54.068;12.116;2023-07-31T06:07:13;15.11;118.99
584;HTU21D;27024;54.068;12.116;2023-07-31T06:09:40;15.16;118.99
584;HTU21D;27024;54.068;12.116;2023-07-31T06:12:07;15.15;118.99
584;HTU21D;27024;54.068;12.116;2023-07-31T06:14:34;15.14;118.99
584;HTU21D;27024;54.068;12.116;2023-07-31T06:17:01;15.26;118.99
584;HTU21D;27024;54.068;12.116;2023-07-31T06:19:27;15.32;118.99
584;HTU21D;27024;54.068;12.116;2023-07-31T06:21:54;15.34;118.99
584;HTU21D;27024;54.068;12.116;2023-07-31T06:24:24;15.72;118.99
584;HTU21D;27024;54.068;12.116;2023-07-31T06:26:51;15.58;118.99
584;HTU21D;27024;54.068;12.116;2023-07-31T06:29:18;15.61;118.99
584;HTU21D;27024;54.068;12.116;2023-07-31T06:31:45;15.55;118.99
584;HTU21D;27024;54.068;12.116;2023-07-31T06:34:12;15.46;118.99
584;HTU21D;27024;54.068;12.116;2023-07-31T06:36:39;15.49;118.99
584;HTU21D;27024;54.068;12.116;2023-07-31T06:39:06;15.43;118.99
584;HTU21D;27024;54.068;12.116;2023-07-31T06:41:33;15.36;118.99
584;HTU21D;27024;54.068;12.116;2023-07-31T06:44:00;15.34;118.99
584;HTU21D;27024;54.068;12.116;2023-07-31T06:46:26;15.41;118.99
584;HTU21D;27024;54.068;12.116;2023-07-31T06:48:53;15.30;118.99
584;HTU21D;27024;54.068;12.116;2023-07-31T06:51:20;15.33;118.99
584;HTU21D;27024;54.068;12.116;2023-07-31T06:53:47;15.31;118.99
584;HTU21D;27024;54.068;12.116;2023-07-31T06:56:14;15.38;118.99
584;HTU21D;27024;54.068;12.116;2023-07-31T06:58:41;15.42;118.99
584;HTU21D;27024;54.068;12.116;2023-07-31T07:01:08;15.41;118.99
584;HTU21D;27024;54.068;12.116;2023-07-31T07:03:35;15.42;118.99
584;HTU21D;27024;54.068;12.116;2023-07-31T07:06:02;15.63;118.99
584;HTU21D;27024;54.068;12.116;2023-07-31T07:08:29;16.01;118.99
584;HTU21D;27024;54.068;12.116;2023-07-31T07:10:56;16.41;118.99
584;HTU21D;27024;54.068;12.116;2023-07-31T07:13:22;16.33;118.99
584;HTU21D;27024;54.068;12.116;2023-07-31T07:15:49;16.34;118.99
584;HTU21D;27024;54.068;12.116;2023-07-31T07:18:17;16.44;118.99
584;HTU21D;27024;54.068;12.116;2023-07-31T07:20:50;16.34;118.99
584;HTU21D;27024;54.068;12.116;2023-07-31T07:23:17;16.17;118.99
584;HTU21D;27024;54.068;12.116;2023-07-31T07:25:45;16.22;118.99
584;HTU21D;27024;54.068;12.116;2023-07-31T07:28:13;16.12;118.99
584;HTU21D;27024;54.068;12.116;2023-07-31T07:30:40;16.14;118.99
584;HTU21D;27024;54.068;12.116;2023-07-31T07:33:07;16.18;118.99
584;HTU21D;27024;54.068;12.116;2023-07-31T07:35:34;16.24;118.99
584;HTU21D;27024;54.068;12.116;2023-07-31T07:38:02;16.22;118.99
584;HTU21D;27024;54.068;12.116;2023-07-31T07:40:30;16.30;118.99
584;HTU21D;27024;54.068;12.116;2023-07-31T07:42:56;16.35;118.99
584;HTU21D;27024;54.068;12.116;2023-07-31T07:45:23;16.46;118.99
584;HTU21D;27024;54.068;12.116;2023-07-31T07:47:50;16.55;118.99
584;HTU21D;27024;54.068;12.116;2023-07-31T07:50:17;16.62;118.99
584;HTU21D;27024;54.068;12.116;2023-07-31T07:52:44;16.54;118.99
584;HTU21D;27024;54.068;12.116;2023-07-31T07:55:11;16.55;118.99
584;HTU21D;27024;54.068;12.116;2023-07-31T07:57:38;16.49;118.99
584;HTU21D;27024;54.068;12.116;2023-07-31T08:00:06;16.56;118.99
584;HTU21D;27024;54.068;12.116;2023-07-31T08:02:33;16.54;118.99
584;HTU21D;27024;54.068;12.116;2023-07-31T08:05:00;16.44;118.99
584;HTU21D;27024;54.068;12.116;2023-07-31T08:07:27;16.50;118.99
584;HTU21D;27024;54.068;12.116;2023-07-31T08:09:54;16.52;118.99
584;HTU21D;27024;54.068;12.116;2023-07-31T08:12:21;16.58;118.99
584;HTU21D;27024;54.068;12.116;2023-07-31T08:14:48;16.73;118.99
584;HTU21D;27024;54.068;12.116;2023-07-31T08:17:14;16.76;118.99
584;HTU21D;27024;54.068;12.116;2023-07-31T08:19:41;16.91;118.99
584;HTU21D;27024;54.068;12.116;2023-07-31T08:22:08;17.01;118.99
584;HTU21D;27024;54.068;12.116;2023-07-31T08:24:35;16.84;118.99
584;HTU21D;27024;54.068;12.116;2023-07-31T08:27:02;16.88;118.99
584;HTU21D;27024;54.068;12.116;2023-07-31T08:29:30;16.96;118.99
584;HTU21D;27024;54.068;12.116;2023-07-31T08:31:56;17.05;118.99
584;HTU21D;27024;54.068;12.116;2023-07-31T08:34:24;17.09;118.99
584;HTU21D;27024;54.068;12.116;2023-07-31T08:36:50;17.09;118.99
584;HTU21D;27024;54.068;12.116;2023-07-31T08:39:17;17.17;118.99
584;HTU21D;27024;54.068;12.116;2023-07-31T08:41:44;17.19;118.99
584;HTU21D;27024;54.068;12.116;2023-07-31T08:44:12;17.32;118.99
584;HTU21D;27024;54.068;12.116;2023-07-31T08:46:40;17.31;118.99
584;HTU21D;27024;54.068;12.116;2023-07-31T08:49:09;17.44;118.99
584;HTU21D;27024;54.068;12.116;2023-07-31T08:51:37;17.63;118.99
584;HTU21D;27024;54.068;12.116;2023-07-31T08:54:04;17.54;118.99
584;HTU21D;27024;54.068;12.116;2023-07-31T08:56:32;17.35;118.99
584;HTU21D;27024;54.068;12.116;2023-07-31T08:59:02;17.34;118.99
584;HTU21D;27024;54.068;12.116;2023-07-31T09:01:35;17.20;118.99
584;HTU21D;27024;54.068;12.116;2023-07-31T09:04:04;17.17;118.99
584;HTU21D;27024;54.068;12.116;2023-07-31T09:06:31;17.26;118.99
584;HTU21D;27024;54.068;12.116;2023-07-31T09:08:58;17.29;118.99
584;HTU21D;27024;54.068;12.116;2023-07-31T09:11:26;17.36;118.99
584;HTU21D;27024;54.068;12.116;2023-07-31T09:13:56;17.28;118.99
584;HTU21D;27024;54.068;12.116;2023-07-31T09:16:27;17.17;118.99
584;HTU21D;27024;54.068;12.116;2023-07-31T09:18:57;17.23;118.99
584;HTU21D;27024;54.068;12.116;2023-07-31T09:21:25;17.25;118.99
584;HTU21D;27024;54.068;12.116;2023-07-31T09:23:54;17.17;118.99
584;HTU21D;27024;54.068;12.116;2023-07-31T09:26:32;17.16;118.99
584;HTU21D;27024;54.068;12.116;2023-07-31T09:29:00;17.28;118.99
584;HTU21D;27024;54.068;12.116;2023-07-31T09:31:41;17.50;118.99
584;HTU21D;27024;54.068;12.116;2023-07-31T09:34:09;17.37;118.99
584;HTU21D;27024;54.068;12.116;2023-07-31T09:36:49;17.47;118.99
584;HTU21D;27024;54.068;12.116;2023-07-31T09:39:17;17.48;118.99
584;HTU21D;27024;54.068;12.116;2023-07-31T09:41:47;17.48;118.99
584;HTU21D;27024;54.068;12.116;2023-07-31T09:44:14;17.53;118.99
584;HTU21D;27024;54.068;12.116;2023-07-31T09:46:41;17.45;118.99
584;HTU21D;27024;54.068;12.116;2023-07-31T09:49:10;17.48;118.99
584;HTU21D;27024;54.068;12.116;2023-07-31T09:51:38;17.44;118.99
584;HTU21D;27024;54.068;12.116;2023-07-31T09:54:12;17.39;118.99
584;HTU21D;27024;54.068;12.116;2023-07-31T09:56:45;17.62;118.99
584;HTU21D;27024;54.068;12.116;2023-07-31T09:59:14;17.68;118.99
584;HTU21D;27024;54.068;12.116;2023-07-31T10:01:43;17.64;118.99
584;HTU21D;27024;54.068;12.116;2023-07-31T10:04:11;17.58;118.99
584;HTU21D;27024;54.068;12.116;2023-07-31T10:06:40;17.69;118.99
584;HTU21D;27024;54.068;12.116;2023-07-31T10:09:15;17.77;118.99
584;HTU21D;27024;54.068;12.116;2023-07-31T10:11:59;18.07;118.99
584;HTU21D;27024;54.068;12.116;2023-07-31T10:14:30;18.06;118.99
584;HTU21D;27024;54.068;12.116;2023-07-31T10:17:07;17.81;118.99
584;HTU21D;27024;54.068;12.116;2023-07-31T10:19:35;17.93;118.99
584;HTU21D;27024;54.068;12.116;2023-07-31T10:22:02;17.90;118.99
584;HTU21D;27024;54.068;12.116;2023-07-31T10:24:29;18.17;118.99
584;HTU21D;27024;54.068;12.116;2023-07-31T10:26:59;17.99;118.99
584;HTU21D;27024;54.068;12.116;2023-07-31T10:29:28;17.82;118.99
584;HTU21D;27024;54.068;12.116;2023-07-31T10:31:58;17.89;118.99
584;HTU21D;27024;54.068;12.116;2023-07-31T10:34:26;18.00;118.99
584;HTU21D;27024;54.068;12.116;2023-07-31T10:37:23;18.12;118.99
584;HTU21D;27024;54.068;12.116;2023-07-31T10:40:06;18.07;118.99
584;HTU21D;27024;54.068;12.116;2023-07-31T10:42:38;17.94;118.99
584;HTU21D;27024;54.068;12.116;2023-07-31T10:45:08;17.80;118.99
584;HTU21D;27024;54.068;12.116;2023-07-31T10:47:38;17.84;118.99
584;HTU21D;27024;54.068;12.116;2023-07-31T10:50:13;17.92;118.99
584;HTU21D;27024;54.068;12.116;2023-07-31T10:52:40;17.96;118.99
584;HTU21D;27024;54.068;12.116;2023-07-31T10:57:47;17.99;118.99
584;HTU21D;27024;54.068;12.116;2023-07-31T11:00:19;18.06;118.99
584;HTU21D;27024;54.068;12.116;2023-07-31T11:03:01;17.94;118.99
584;HTU21D;27024;54.068;12.116;2023-07-31T11:10:47;17.76;118.99
584;HTU21D;27024;54.068;12.116;2023-07-31T11:13:15;17.67;118.99
584;HTU21D;27024;54.068;12.116;2023-07-31T11:15:42;17.81;118.99
584;HTU21D;27024;54.068;12.116;2023-07-31T11:18:09;17.81;118.99
584;HTU21D;27024;54.068;12.116;2023-07-31T11:20:37;17.66;118.99
584;HTU21D;27024;54.068;12.116;2023-07-31T11:23:07;17.67;118.99
584;HTU21D;27024;54.068;12.116;2023-07-31T11:25:36;17.63;118.99
584;HTU21D;27024;54.068;12.116;2023-07-31T11:28:10;17.77;118.99
584;HTU21D;27024;54.068;12.116;2023-07-31T11:30:39;17.87;118.99
584;HTU21D;27024;54.068;12.116;2023-07-31T11:33:09;17.91;118.99
584;HTU21D;27024;54.068;12.116;2023-07-31T11:35:44;17.74;118.99
584;HTU21D;27024;54.068;12.116;2023-07-31T11:38:21;17.79;118.99
584;HTU21D;27024;54.068;12.116;2023-07-31T11:40:51;17.70;118.99
584;HTU21D;27024;54.068;12.116;2023-07-31T11:43:19;17.63;118.99
584;HTU21D;27024;54.068;12.116;2023-07-31T11:45:57;17.41;118.99
584;HTU21D;27024;54.068;12.116;2023-07-31T11:48:29;17.40;118.99
584;HTU21D;27024;54.068;12.116;2023-07-31T11:50:58;17.33;118.99
584;HTU21D;27024;54.068;12.116;2023-07-31T11:55:59;16.96;118.99
584;HTU21D;27024;54.068;12.116;2023-07-31T11:58:28;16.71;118.99
584;HTU21D;27024;54.068;12.116;2023-07-31T12:00:56;16.69;118.99
584;HTU21D;27024;54.068;12.116;2023-07-31T12:03:27;16.49;118.99
584;HTU21D;27024;54.068;12.116;2023-07-31T12:05:54;16.42;118.99
584;HTU21D;27024;54.068;12.116;2023-07-31T12:08:23;16.46;118.99
584;HTU21D;27024;54.068;12.116;2023-07-31T12:10:54;16.08;118.99
584;HTU21D;27024;54.068;12.116;2023-07-31T12:13:28;15.95;118.99
584;HTU21D;27024;54.068;12.116;2023-07-31T12:15:58;16.03;118.99
584;HTU21D;27024;54.068;12.116;2023-07-31T12:18:27;15.70;118.99
584;HTU21D;27024;54.068;12.116;2023-07-31T12:20:55;15.72;118.99
584;HTU21D;27024;54.068;12.116;2023-07-31T12:23:27;15.66;118.99
584;HTU21D;27024;54.068;12.116;2023-07-31T12:28:37;15.41;118.99
584;HTU21D;27024;54.068;12.116;2023-07-31T12:31:05;15.57;118.99
584;HTU21D;27024;54.068;12.116;2023-07-31T12:33:38;15.62;118.99
584;HTU21D;27024;54.068;12.116;2023-07-31T12:36:10;15.67;118.99
584;HTU21D;27024;54.068;12.116;2023-07-31T12:38:37;15.73;118.99
584;HTU21D;27024;54.068;12.116;2023-07-31T12:41:04;15.86;118.99
584;HTU21D;27024;54.068;12.116;2023-07-31T12:43:34;15.90;118.99
584;HTU21D;27024;54.068;12.116;2023-07-31T12:46:02;15.99;118.99
584;HTU21D;27024;54.068;12.116;2023-07-31T12:48:29;15.96;118.99
584;HTU21D;27024;54.068;12.116;2023-07-31T12:50:56;15.97;118.99
584;HTU21D;27024;54.068;12.116;2023-07-31T12:53:23;15.98;118.99
584;HTU21D;27024;54.068;12.116;2023-07-31T12:55:50;16.17;118.99
584;HTU21D;27024;54.068;12.116;2023-07-31T12:58:17;16.25;118.99
584;HTU21D;27024;54.068;12.116;2023-07-31T13:00:44;16.27;118.99
584;HTU21D;27024;54.068;12.116;2023-07-31T13:03:10;16.26;118.99
584;HTU21D;27024;54.068;12.116;2023-07-31T13:05:38;16.28;118.99
584;HTU21D;27024;54.068;12.116;2023-07-31T13:08:05;16.25;118.99
584;HTU21D;27024;54.068;12.116;2023-07-31T13:10:32;16.20;118.99
584;HTU21D;27024;54.068;12.116;2023-07-31T13:12:59;16.26;118.99
584;HTU21D;27024;54.068;12.116;2023-07-31T13:15:26;16.32;118.99
584;HTU21D;27024;54.068;12.116;2023-07-31T13:17:53;16.52;118.99
584;HTU21D;27024;54.068;12.116;2023-07-31T13:20:19;16.40;118.99
584;HTU21D;27024;54.068;12.116;2023-07-31T13:22:46;16.35;118.99
584;HTU21D;27024;54.068;12.116;2023-07-31T13:25:13;16.32;118.99
584;HTU21D;27024;54.068;12.116;2023-07-31T13:27:40;16.57;118.99
584;HTU21D;27024;54.068;12.116;2023-07-31T13:30:08;16.25;118.99
584;HTU21D;27024;54.068;12.116;2023-07-31T13:32:34;16.47;118.99
584;HTU21D;27024;54.068;12.116;2023-07-31T13:35:07;16.48;118.99
584;HTU21D;27024;54.068;12.116;2023-07-31T13:37:34;16.37;118.99
584;HTU21D;27024;54.068;12.116;2023-07-31T13:40:01;16.26;118.99
584;HTU21D;27024;54.068;12.116;2023-07-31T13:42:32;16.28;118.99
584;HTU21D;27024;54.068;12.116;2023-07-31T13:44:59;16.40;118.99
584;HTU21D;27024;54.068;12.116;2023-07-31T13:47:29;16.29;118.99
584;HTU21D;27024;54.068;12.116;2023-07-31T13:49:56;16.20;118.99
584;HTU21D;27024;54.068;12.116;2023-07-31T13:52:23;16.36;118.99
584;HTU21D;27024;54.068;12.116;2023-07-31T13:54:49;16.29;118.99
584;HTU21D;27024;54.068;12.116;2023-07-31T13:57:16;16.21;118.99
584;HTU21D;27024;54.068;12.116;2023-07-31T13:59:43;16.42;118.99
584;HTU21D;27024;54.068;12.116;2023-07-31T14:02:10;16.58;118.99
584;HTU21D;27024;54.068;12.116;2023-07-31T14:04:37;16.52;118.99
584;HTU21D;27024;54.068;12.116;2023-07-31T14:07:04;16.67;118.99
584;HTU21D;27024;54.068;12.116;2023-07-31T14:09:31;16.77;118.99
584;HTU21D;27024;54.068;12.116;2023-07-31T14:11:58;16.91;118.99
584;HTU21D;27024;54.068;12.116;2023-07-31T14:14:25;16.73;118.99
584;HTU21D;27024;54.068;12.116;2023-07-31T14:16:52;16.69;118.99
584;HTU21D;27024;54.068;12.116;2023-07-31T14:19:19;16.69;118.99
584;HTU21D;27024;54.068;12.116;2023-07-31T14:21:47;16.79;118.99
584;HTU21D;27024;54.068;12.116;2023-07-31T14:24:31;16.71;118.99
584;HTU21D;27024;54.068;12.116;2023-07-31T14:26:58;16.69;118.99
584;HTU21D;27024;54.068;12.116;2023-07-31T14:29:25;16.76;118.99
584;HTU21D;27024;54.068;12.116;2023-07-31T14:31:52;16.94;118.99
584;HTU21D;27024;54.068;12.116;2023-07-31T14:34:19;16.98;118.99
584;HTU21D;27024;54.068;12.116;2023-07-31T14:36:46;16.99;118.99
584;HTU21D;27024;54.068;12.116;2023-07-31T14:39:13;16.93;118.99
584;HTU21D;27024;54.068;12.116;2023-07-31T14:41:40;16.93;118.99
584;HTU21D;27024;54.068;12.116;2023-07-31T14:44:07;17.02;118.99
584;HTU21D;27024;54.068;12.116;2023-07-31T14:46:33;16.82;118.99
584;HTU21D;27024;54.068;12.116;2023-07-31T14:49:00;16.82;118.99
584;HTU21D;27024;54.068;12.116;2023-07-31T14:51:27;16.94;118.99
584;HTU21D;27024;54.068;12.116;2023-07-31T14:53:54;17.06;118.99
584;HTU21D;27024;54.068;12.116;2023-07-31T14:56:21;17.08;118.99
584;HTU21D;27024;54.068;12.116;2023-07-31T14:58:48;16.95;118.99
584;HTU21D;27024;54.068;12.116;2023-07-31T15:01:15;17.00;118.99
584;HTU21D;27024;54.068;12.116;2023-07-31T15:03:42;16.98;118.99
584;HTU21D;27024;54.068;12.116;2023-07-31T15:06:10;17.26;118.99
584;HTU21D;27024;54.068;12.116;2023-07-31T15:08:38;17.26;118.99
584;HTU21D;27024;54.068;12.116;2023-07-31T15:11:05;17.08;118.99
584;HTU21D;27024;54.068;12.116;2023-07-31T15:13:32;17.03;118.99
584;HTU21D;27024;54.068;12.116;2023-07-31T15:15:59;17.02;118.99
584;HTU21D;27024;54.068;12.116;2023-07-31T15:18:26;16.98;118.99
584;HTU21D;27024;54.068;12.116;2023-07-31T15:20:53;17.09;118.99
584;HTU21D;27024;54.068;12.116;2023-07-31T15:23:20;17.09;118.99
584;HTU21D;27024;54.068;12.116;2023-07-31T15:25:48;17.11;118.99
584;HTU21D;27024;54.068;12.116;2023-07-31T15:28:15;17.10;118.99
584;HTU21D;27024;54.068;12.116;2023-07-31T15:30:42;17.01;118.99
584;HTU21D;27024;54.068;12.116;2023-07-31T15:33:09;16.96;118.99
584;HTU21D;27024;54.068;12.116;2023-07-31T15:35:36;16.94;118.99
584;HTU21D;27024;54.068;12.116;2023-07-31T15:38:03;17.02;118.99
584;HTU21D;27024;54.068;12.116;2023-07-31T15:40:30;17.18;118.99